Terminal Aerodrome Forecast
Issued by NWS Wilmington, NC

Current Version | Previous Version | Graphics & Text | Print | Product List | Glossary Off
Versions: 1 2 3 4 5 6 7 8 9 10 11 12 13 14

000
FTUS42 KILM 221137
TAFFLO
TAF
KFLO 221137Z 2212/2312 04003KT P6SM SKC
     FM221300 10006KT P6SM SCT035
     FM221900 12010KT P6SM BKN100
     FM230000 13012KT P6SM OVC050
     FM230300 12007KT P6SM OVC025=

USA.gov is the U.S. government's official web portal to all federal, state and local government web resources and services.